Time;durP1;ratioP1;P1;durP2;ratioP2;P2;SDS_P1;SDS_P2;PMS_P1;PMS_P2;Temp;Humidity;BMP_temperature;BMP_pressure;BME280_temperature;BME280_humidity;BME280_pressure;Samples;Min_cycle;Max_cycle;Signal;HPM_P1;HPM_P2
2022/09/07 00:01:26;;;;;;;28.88;20.08;;;21.90;99.90;;;;;;5051758;28;20046;-75
2022/09/07 00:03:56;;;;;;;23.90;19.63;;;19.60;99.90;;;;;;5056114;28;20068;-75
2022/09/07 00:06:22;;;;;;;20.77;18.25;;;20.90;99.90;;;;;;5042768;28;20041;-76
2022/09/07 00:08:48;;;;;;;22.35;18.50;;;20.10;99.90;;;;;;5031894;28;20056;-75
2022/09/07 00:11:17;;;;;;;23.52;19.88;;;21.60;99.90;;;;;;5034802;28;20124;-76
2022/09/07 00:13:44;;;;;;;23.80;17.73;;;19.50;99.90;;;;;;5034729;28;20116;-75
2022/09/07 00:16:16;;;;;;;27.50;18.25;;;21.20;99.90;;;;;;5035790;28;20124;-75
2022/09/07 00:18:42;;;;;;;21.70;17.10;;;19.30;99.90;;;;;;5035923;28;20034;-75
2022/09/07 00:21:09;;;;;;;23.60;18.98;;;20.00;99.90;;;;;;5034326;28;20044;-76
2022/09/07 00:23:37;;;;;;;23.67;18.40;;;19.20;99.90;;;;;;5034135;28;20116;-75
2022/09/07 00:26:14;;;;;;;21.52;17.63;;;20.50;99.90;;;;;;5017877;28;20301;-75
2022/09/07 00:28:40;;;;;;;22.23;18.08;;;19.50;99.90;;;;;;5034396;28;20041;-75
2022/09/07 00:31:12;;;;;;;25.27;18.20;;;20.60;99.90;;;;;;5035559;28;20506;-76
2022/09/07 00:33:37;;;;;;;20.60;17.23;;;20.30;99.90;;;;;;5035463;28;20491;-75
2022/09/07 00:36:03;;;;;;;18.45;15.90;;;19.70;99.90;;;;;;5033866;28;20102;-75
2022/09/07 00:38:29;;;;;;;18.13;15.82;;;19.70;99.90;;;;;;5034228;28;20419;-76
2022/09/07 00:40:54;;;;;;;19.90;14.60;;;19.70;99.90;;;;;;5034320;28;20037;-75
2022/09/07 00:43:38;;;;;;;18.30;16.40;;;19.70;99.90;;;;;;5035305;28;20410;-75
2022/09/07 00:46:10;;;;;;;22.08;16.17;;;20.30;99.90;;;;;;5033852;28;20064;-75
2022/09/07 00:48:51;;;;;;;19.35;16.02;;;19.60;99.90;;;;;;5035497;28;20084;-75
2022/09/07 00:51:24;;;;;;;20.35;17.90;;;19.50;99.90;;;;;;5034016;28;20044;-75
2022/09/07 00:53:57;;;;;;;17.63;14.95;;;19.80;99.90;;;;;;5033960;28;20112;-75
2022/09/07 00:56:25;;;;;;;19.70;17.02;;;19.30;99.90;;;;;;5033840;28;20038;-75
2022/09/07 00:58:51;;;;;;;20.15;16.38;;;19.80;99.90;;;;;;5033009;28;20447;-75
2022/09/07 01:01:17;;;;;;;19.13;15.55;;;21.80;99.90;;;;;;5034899;28;20033;-75
2022/09/07 01:03:48;;;;;;;18.13;14.77;;;20.50;99.90;;;;;;5034668;28;20045;-75
2022/09/07 01:06:25;;;;;;;18.52;16.08;;;20.10;99.90;;;;;;5017312;28;20533;-76
2022/09/07 01:08:52;;;;;;;19.98;16.52;;;20.20;99.90;;;;;;5035003;28;20120;-75
2022/09/07 01:11:20;;;;;;;20.65;15.73;;;19.90;99.90;;;;;;5033752;28;20048;-75
2022/09/07 01:13:48;;;;;;;19.00;15.82;;;19.60;99.90;;;;;;5017168;28;20049;-75
2022/09/07 01:16:51;;;;;;;20.90;14.90;;;20.00;99.90;;;;;;5033207;28;20120;-75
2022/09/07 01:19:36;;;;;;;18.52;13.02;;;19.50;99.90;;;;;;5033283;28;20091;-75
2022/09/07 01:22:38;;;;;;;16.52;11.45;;;19.40;99.90;;;;;;5033170;28;20565;-75
2022/09/07 01:25:09;;;;;;;13.82;10.27;;;19.40;99.90;;;;;;5034230;28;20503;-75
2022/09/07 01:27:58;;;;;;;13.27;8.70;;;19.20;99.90;;;;;;5034768;28;20041;-75
2022/09/07 01:30:25;;;;;;;10.10;7.82;;;19.40;99.90;;;;;;5033248;28;20041;-76
2022/09/07 01:33:06;;;;;;;13.02;9.40;;;21.00;99.90;;;;;;5034279;28;20041;-76
2022/09/07 01:35:53;;;;;;;14.10;10.65;;;19.20;99.90;;;;;;5032733;28;20091;-75
2022/09/07 01:38:33;;;;;;;15.32;9.75;;;20.80;99.90;;;;;;5034434;28;20049;-76
2022/09/07 01:41:16;;;;;;;13.55;10.20;;;19.30;99.90;;;;;;5034387;28;20037;-76
2022/09/07 01:44:04;;;;;;;10.82;9.20;;;19.30;99.90;;;;;;5033198;28;20056;-76
2022/09/07 01:46:40;;;;;;;13.23;8.85;;;19.10;99.90;;;;;;5034252;28;20041;-76
2022/09/07 01:49:19;;;;;;;12.10;9.38;;;20.90;99.90;;;;;;5016329;28;20602;-76
2022/09/07 01:51:50;;;;;;;11.60;8.15;;;19.20;99.90;;;;;;5034049;28;20042;-76
2022/09/07 01:54:32;;;;;;;13.27;8.27;;;18.90;99.90;;;;;;5034013;28;20044;-76
2022/09/07 01:57:03;;;;;;;12.23;7.63;;;18.90;99.90;;;;;;5034274;28;20378;-76
2022/09/07 01:59:39;;;;;;;8.30;5.00;;;18.90;99.90;;;;;;5032773;28;20120;-76
2022/09/07 02:02:16;;;;;;;12.63;6.38;;;18.60;99.90;;;;;;5032815;28;20041;-76
2022/09/07 02:04:48;;;;;;;12.00;6.70;;;18.70;99.90;;;;;;5015817;28;20403;-75
2022/09/07 02:07:32;;;;;;;13.55;8.48;;;18.60;99.90;;;;;;5033920;28;20048;-76
2022/09/07 02:10:01;;;;;;;10.60;8.20;;;18.60;99.90;;;;;;5034153;28;20048;-76
2022/09/07 02:12:36;;;;;;;11.05;7.90;;;20.40;99.90;;;;;;5032641;28;20510;-76
2022/09/07 02:15:08;;;;;;;12.70;8.10;;;18.40;99.90;;;;;;5032075;28;20507;-75
2022/09/07 02:17:40;;;;;;;10.63;7.75;;;18.40;99.90;;;;;;5032520;28;20049;-76
2022/09/07 02:20:25;;;;;;;10.77;7.57;;;18.60;99.90;;;;;;5033659;28;20121;-76
2022/09/07 02:22:56;;;;;;;10.13;7.40;;;18.50;99.90;;;;;;5031932;28;20045;-76
2022/09/07 02:25:33;;;;;;;10.85;8.00;;;18.20;99.90;;;;;;5033279;28;20407;-76
2022/09/07 02:28:10;;;;;;;12.93;7.50;;;18.40;99.90;;;;;;5032438;28;20054;-76
2022/09/07 02:30:36;;;;;;;9.10;7.18;;;18.50;99.90;;;;;;5032391;28;20402;-76
2022/09/07 02:33:01;;;;;;;14.45;8.43;;;18.50;99.90;;;;;;5032212;28;20116;-76
2022/09/07 02:35:27;;;;;;;11.88;8.70;;;18.30;99.90;;;;;;5031755;28;20293;-76
2022/09/07 02:37:53;;;;;;;10.65;8.52;;;18.60;99.90;;;;;;5031789;28;20041;-76
2022/09/07 02:40:19;;;;;;;10.98;7.97;;;18.40;99.90;;;;;;5031917;28;20069;-76
2022/09/07 02:42:47;;;;;;;10.40;5.90;;;18.10;99.90;;;;;;5032004;28;20491;-76
2022/09/07 02:45:15;;;;;;;8.35;5.30;;;19.80;99.90;;;;;;5031422;28;20076;-76
2022/09/07 02:48:00;;;;;;;6.85;5.53;;;18.20;99.90;;;;;;5033052;28;20052;-75
2022/09/07 02:50:43;;;;;;;8.18;5.03;;;19.20;99.90;;;;;;5031990;28;20053;-75
2022/09/07 02:53:40;;;;;;;8.15;4.80;;;18.10;99.90;;;;;;5033038;28;20055;-75
2022/09/07 02:56:32;;;;;;;6.15;4.20;;;18.00;99.90;;;;;;5033002;28;20041;-75
2022/09/07 02:59:18;;;;;;;8.40;4.43;;;17.90;99.90;;;;;;5008570;28;20045;-75
2022/09/07 03:02:07;;;;;;;4.95;4.15;;;17.90;99.90;;;;;;5031448;28;20127;-75
2022/09/07 03:04:53;;;;;;;4.72;3.75;;;17.80;99.90;;;;;;5031108;28;20041;-75
2022/09/07 03:07:25;;;;;;;5.43;4.50;;;17.90;99.90;;;;;;5037317;28;20072;-75
2022/09/07 03:09:55;;;;;;;6.43;3.53;;;17.90;99.90;;;;;;5057387;28;20116;-76
2022/09/07 03:12:21;;;;;;;5.70;4.38;;;20.00;99.90;;;;;;5057687;28;20021;-76
2022/09/07 03:14:47;;;;;;;5.93;3.72;;;19.50;99.90;;;;;;5036421;28;20030;-75
2022/09/07 03:17:13;;;;;;;7.45;4.40;;;18.00;99.90;;;;;;5031884;28;20081;-75
2022/09/07 03:19:38;;;;;;;7.35;3.85;;;18.10;99.90;;;;;;5032488;28;20076;-75
2022/09/07 03:22:05;;;;;;;6.28;3.85;;;17.90;99.90;;;;;;5055730;23;20033;-72
2022/09/07 03:24:30;;;;;;;8.85;4.10;;;17.90;99.90;;;;;;5033474;28;20041;-72
2022/09/07 03:26:56;;;;;;;8.02;4.05;;;17.90;99.90;;;;;;5051082;28;20041;-75
2022/09/07 03:29:22;;;;;;;5.50;3.53;;;17.90;99.90;;;;;;5052225;28;20048;-75
2022/09/07 03:31:51;;;;;;;6.53;3.70;;;17.90;99.90;;;;;;5034403;28;20041;-75
2022/09/07 03:34:16;;;;;;;6.65;3.45;;;18.00;99.90;;;;;;5030674;28;20117;-75
2022/09/07 03:36:42;;;;;;;7.18;4.53;;;19.30;99.90;;;;;;5032078;28;20131;-75
2022/09/07 03:39:10;;;;;;;6.43;3.05;;;17.90;99.90;;;;;;5030832;28;20060;-74
2022/09/07 03:41:36;;;;;;;4.15;2.95;;;18.10;99.90;;;;;;5039607;28;20045;-74
2022/09/07 03:44:06;;;;;;;3.80;2.70;;;18.00;99.90;;;;;;5030979;28;20402;-75
2022/09/07 03:46:33;;;;;;;4.13;2.70;;;18.20;99.90;;;;;;5030872;28;20403;-75
2022/09/07 03:48:58;;;;;;;3.97;2.58;;;17.80;99.90;;;;;;5031896;28;20122;-75
2022/09/07 03:51:24;;;;;;;5.50;2.75;;;18.40;99.90;;;;;;5031785;28;20097;-74
2022/09/07 03:53:50;;;;;;;5.90;3.30;;;17.90;99.90;;;;;;5031662;28;20096;-75
2022/09/07 03:56:21;;;;;;;3.08;2.72;;;17.90;99.90;;;;;;5031701;28;20073;-74
2022/09/07 03:58:48;;;;;;;4.88;3.22;;;19.00;99.90;;;;;;5031863;28;20038;-75
2022/09/07 04:01:17;;;;;;;5.90;2.63;;;18.10;99.90;;;;;;5030524;28;20048;-74
2022/09/07 04:03:44;;;;;;;5.93;2.47;;;17.70;99.90;;;;;;5030263;28;20120;-75
2022/09/07 04:06:10;;;;;;;6.07;2.80;;;17.60;99.90;;;;;;5013870;28;20103;-75
2022/09/07 04:08:37;;;;;;;7.05;2.67;;;17.80;99.90;;;;;;5030388;28;20049;-75
2022/09/07 04:11:05;;;;;;;4.85;2.63;;;18.00;99.90;;;;;;5030334;28;20038;-76
2022/09/07 04:13:32;;;;;;;5.88;2.47;;;17.80;99.90;;;;;;5031576;28;20041;-75
2022/09/07 04:15:58;;;;;;;6.13;2.80;;;17.60;99.90;;;;;;5031279;28;20052;-75
2022/09/07 04:18:23;;;;;;;7.20;2.67;;;17.70;99.90;;;;;;5030349;28;20125;-75
2022/09/07 04:20:49;;;;;;;7.72;3.15;;;17.60;99.90;;;;;;5030261;28;20454;-75
2022/09/07 04:23:16;;;;;;;7.47;2.95;;;17.70;99.90;;;;;;5030071;28;20033;-75
2022/09/07 04:25:47;;;;;;;6.72;3.05;;;17.70;99.90;;;;;;5029919;28;20034;-75
2022/09/07 04:28:13;;;;;;;7.88;2.63;;;17.80;99.90;;;;;;5030350;28;20087;-74
2022/09/07 04:30:39;;;;;;;6.45;2.60;;;17.60;99.90;;;;;;5030114;28;20466;-74
2022/09/07 04:33:04;;;;;;;8.80;2.83;;;17.50;99.90;;;;;;5031329;28;20080;-75
2022/09/07 04:35:30;;;;;;;7.85;2.95;;;17.70;99.90;;;;;;5031183;28;20041;-75
2022/09/07 04:37:56;;;;;;;5.78;3.20;;;17.50;99.90;;;;;;5030451;28;20137;-75
2022/09/07 04:40:22;;;;;;;8.50;3.20;;;18.70;99.90;;;;;;5030314;28;20480;-75
2022/09/07 04:42:47;;;;;;;5.55;2.80;;;17.60;99.90;;;;;;5031447;28;20041;-74
2022/09/07 04:45:13;;;;;;;9.82;3.85;;;18.80;99.90;;;;;;5029945;28;20057;-75
2022/09/07 04:47:39;;;;;;;7.03;3.85;;;18.20;99.90;;;;;;5030069;28;20491;-74
2022/09/07 04:50:05;;;;;;;5.93;3.55;;;17.50;99.90;;;;;;5030061;28;20072;-75
2022/09/07 04:52:30;;;;;;;5.25;3.22;;;17.70;99.90;;;;;;5029982;28;20068;-75
2022/09/07 04:54:56;;;;;;;7.28;4.95;;;17.70;99.90;;;;;;5030476;28;20037;-75
2022/09/07 04:57:24;;;;;;;8.27;4.75;;;17.80;99.90;;;;;;5035068;28;20045;-75
2022/09/07 04:59:50;;;;;;;6.70;4.55;;;17.70;99.90;;;;;;5034935;28;20048;-75
2022/09/07 05:02:16;;;;;;;11.07;4.68;;;17.60;99.90;;;;;;5017050;28;20037;-75
2022/09/07 05:04:41;;;;;;;9.13;4.07;;;18.00;99.90;;;;;;5034693;28;20045;-76
2022/09/07 05:07:07;;;;;;;4.75;3.92;;;17.80;99.90;;;;;;5033594;28;20046;-75
2022/09/07 05:09:32;;;;;;;8.05;4.00;;;18.10;99.90;;;;;;5033502;28;20033;-75
2022/09/07 05:11:59;;;;;;;7.22;4.60;;;17.60;99.90;;;;;;5034737;28;20033;-75
2022/09/07 05:14:24;;;;;;;5.07;3.88;;;17.80;99.90;;;;;;5034513;28;20132;-75
2022/09/07 05:16:50;;;;;;;6.03;4.03;;;17.60;99.90;;;;;;5034726;28;20124;-75
2022/09/07 05:19:15;;;;;;;9.82;4.55;;;17.60;99.90;;;;;;5033526;28;20562;-75
2022/09/07 05:21:41;;;;;;;7.75;4.43;;;17.60;99.90;;;;;;5033176;28;20133;-75
2022/09/07 05:24:08;;;;;;;5.38;4.50;;;17.50;99.90;;;;;;5034070;28;20068;-75
2022/09/07 05:26:35;;;;;;;7.78;4.57;;;17.70;99.90;;;;;;5034561;28;20168;-75
2022/09/07 05:29:04;;;;;;;7.65;5.45;;;17.70;99.90;;;;;;5033272;28;20120;-75
2022/09/07 05:31:31;;;;;;;7.55;5.47;;;17.90;99.90;;;;;;5016818;28;20037;-75
2022/09/07 05:33:57;;;;;;;8.73;5.30;;;17.80;99.90;;;;;;5032867;28;20495;-75
2022/09/07 05:36:25;;;;;;;14.68;5.28;;;17.70;99.90;;;;;;5033018;28;20045;-75
2022/09/07 05:38:51;;;;;;;19.80;6.07;;;17.70;99.90;;;;;;5033032;28;20034;-75
2022/09/07 05:41:26;;;;;;;9.57;5.88;;;17.90;99.90;;;;;;5032932;28;20041;-75
2022/09/07 05:43:52;;;;;;;7.93;5.30;;;17.80;99.90;;;;;;5032672;28;20080;-75
2022/09/07 05:46:18;;;;;;;8.63;5.80;;;17.70;99.90;;;;;;5032719;28;20048;-75
2022/09/07 05:48:44;;;;;;;8.85;6.45;;;17.70;99.90;;;;;;5034121;28;20042;-75
2022/09/07 05:51:12;;;;;;;8.52;5.47;;;17.70;99.90;;;;;;5016335;28;20073;-75
2022/09/07 05:53:39;;;;;;;8.98;6.32;;;17.80;99.90;;;;;;5032548;28;20037;-75
2022/09/07 05:56:05;;;;;;;6.78;5.70;;;17.90;99.90;;;;;;5032131;28;20506;-75
2022/09/07 05:58:31;;;;;;;7.65;5.20;;;18.10;99.90;;;;;;5034085;28;20468;-75
2022/09/07 06:01:08;;;;;;;7.78;5.43;;;18.10;99.90;;;;;;5016004;28;20120;-75
2022/09/07 06:03:35;;;;;;;7.75;5.72;;;17.90;99.90;;;;;;5033804;28;20038;-75
2022/09/07 06:06:15;;;;;;;9.13;6.57;;;18.20;99.90;;;;;;5033263;28;20499;-74
2022/09/07 06:08:46;;;;;;;7.35;5.95;;;17.90;99.90;;;;;;5033593;28;20095;-75
2022/09/07 06:11:15;;;;;;;9.57;6.60;;;17.90;99.90;;;;;;5012900;28;20293;-75
2022/09/07 06:13:41;;;;;;;11.23;8.43;;;18.00;99.90;;;;;;5037291;28;20056;-75
2022/09/07 06:16:09;;;;;;;8.20;7.40;;;18.10;99.90;;;;;;5040186;28;20498;-75
2022/09/07 06:18:40;;;;;;;11.70;7.47;;;18.00;99.90;;;;;;5039249;28;20405;-75
2022/09/07 06:21:11;;;;;;;9.27;8.02;;;18.10;99.90;;;;;;5040696;28;20041;-76
2022/09/07 06:23:43;;;;;;;13.10;9.23;;;17.90;99.90;;;;;;5039353;28;20044;-75
2022/09/07 06:26:10;;;;;;;12.57;9.73;;;18.00;99.90;;;;;;5038763;28;20044;-74
2022/09/07 06:28:40;;;;;;;12.00;10.68;;;18.10;99.90;;;;;;5049379;28;20498;-74
2022/09/07 06:31:12;;;;;;;17.08;12.32;;;18.90;99.90;;;;;;5050603;28;20044;-77
2022/09/07 06:33:38;;;;;;;15.00;11.20;;;19.50;99.90;;;;;;5042461;28;20491;-75
2022/09/07 06:36:11;;;;;;;12.20;10.82;;;19.00;99.90;;;;;;5021841;28;20037;-76
2022/09/07 06:38:37;;;;;;;12.73;10.73;;;18.10;99.90;;;;;;5016025;28;20041;-76
2022/09/07 06:41:13;;;;;;;14.60;11.77;;;17.90;99.90;;;;;;4995536;28;20046;-75
2022/09/07 06:43:39;;;;;;;17.70;13.65;;;18.10;99.90;;;;;;5012241;28;20068;-75
2022/09/07 06:46:05;;;;;;;16.27;11.35;;;18.00;99.90;;;;;;5011629;28;20504;-74
2022/09/07 06:48:31;;;;;;;17.48;13.02;;;18.30;99.90;;;;;;5011917;28;20038;-75
2022/09/07 06:51:10;;;;;;;16.70;14.90;;;17.10;99.90;;;;;;5011719;28;20042;-75
2022/09/07 06:53:37;;;;;;;15.68;12.77;;;18.20;99.90;;;;;;5012895;28;20034;-75
2022/09/07 06:56:08;;;;;;;18.08;13.63;;;18.10;99.90;;;;;;5017017;28;20043;-75
2022/09/07 06:58:34;;;;;;;20.25;14.68;;;18.20;99.90;;;;;;5031229;28;20064;-75
2022/09/07 07:01:08;;;;;;;16.70;13.95;;;18.80;99.90;;;;;;5031427;28;20037;-75
2022/09/07 07:03:35;;;;;;;17.05;14.88;;;18.10;99.90;;;;;;5014600;28;20033;-75
2022/09/07 07:06:00;;;;;;;18.33;15.05;;;18.00;99.90;;;;;;5030970;28;20045;-75
2022/09/07 07:08:26;;;;;;;18.20;13.10;;;18.30;99.90;;;;;;5032091;28;20056;-75
2022/09/07 07:10:52;;;;;;;17.55;14.38;;;19.50;99.90;;;;;;5014991;28;20095;-77
2022/09/07 07:13:18;;;;;;;16.15;13.90;;;18.40;99.90;;;;;;5030876;28;20045;-76
2022/09/07 07:15:45;;;;;;;19.73;14.35;;;20.60;99.90;;;;;;5031421;28;20098;-76
2022/09/07 07:18:11;;;;;;;20.27;14.38;;;18.60;99.90;;;;;;5030643;28;20491;-76
2022/09/07 07:20:38;;;;;;;20.80;16.25;;;19.90;99.90;;;;;;5030962;28;20041;-75
2022/09/07 07:23:04;;;;;;;19.65;16.95;;;18.60;99.90;;;;;;5030674;28;20038;-76
2022/09/07 07:25:30;;;;;;;17.58;13.75;;;19.10;99.90;;;;;;5030043;28;20052;-76
2022/09/07 07:27:55;;;;;;;27.92;15.57;;;19.50;99.90;;;;;;5010829;28;20113;-74
2022/09/07 07:30:21;;;;;;;22.10;17.23;;;18.90;99.90;;;;;;4995169;28;20046;-74
2022/09/07 07:32:47;;;;;;;19.55;15.50;;;19.80;99.90;;;;;;5011812;28;20038;-74
2022/09/07 07:35:18;;;;;;;21.63;17.10;;;18.90;99.90;;;;;;4994518;28;20045;-75
2022/09/07 07:37:44;;;;;;;19.00;15.77;;;19.00;99.90;;;;;;5011090;28;20053;-76
2022/09/07 07:40:12;;;;;;;20.70;16.73;;;19.10;99.90;;;;;;5021332;28;20030;-72
2022/09/07 07:42:38;;;;;;;18.52;15.32;;;19.10;99.90;;;;;;5030303;28;20045;-72
2022/09/07 07:45:05;;;;;;;20.13;15.80;;;19.30;99.90;;;;;;5031546;28;20518;-71
2022/09/07 07:47:31;;;;;;;19.73;13.15;;;19.20;99.90;;;;;;5030779;28;20083;-72
2022/09/07 07:49:57;;;;;;;18.48;15.82;;;19.00;99.90;;;;;;5030624;28;20080;-72
2022/09/07 07:52:23;;;;;;;24.23;17.75;;;19.40;99.90;;;;;;5030587;28;20099;-73
2022/09/07 07:54:49;;;;;;;20.98;16.48;;;21.30;99.90;;;;;;5013533;28;20045;-74
2022/09/07 07:57:17;;;;;;;23.17;16.50;;;19.40;99.90;;;;;;5030768;28;20388;-74
2022/09/07 07:59:43;;;;;;;21.42;14.98;;;20.90;99.90;;;;;;5031793;28;20411;-73
2022/09/07 08:02:13;;;;;;;18.48;14.93;;;19.70;99.90;;;;;;5030524;28;20048;-73
2022/09/07 08:04:39;;;;;;;20.98;16.02;;;20.00;99.90;;;;;;5031458;28;20033;-74
2022/09/07 08:07:05;;;;;;;18.92;14.60;;;21.40;99.90;;;;;;5013979;28;20044;-76
2022/09/07 08:09:31;;;;;;;17.25;12.73;;;20.00;99.90;;;;;;5013988;28;20029;-76
2022/09/07 08:11:57;;;;;;;16.92;14.50;;;20.20;99.90;;;;;;5014205;28;20491;-75
2022/09/07 08:14:22;;;;;;;16.50;14.18;;;20.20;99.90;;;;;;5031349;28;20511;-74
2022/09/07 08:16:48;;;;;;;15.48;13.73;;;20.40;99.90;;;;;;5031562;28;20046;-73
2022/09/07 08:19:13;;;;;;;15.82;13.23;;;20.40;99.90;;;;;;5031633;28;20042;-73
2022/09/07 08:21:39;;;;;;;16.83;13.55;;;20.00;99.90;;;;;;5030317;28;20392;-74
2022/09/07 08:24:05;;;;;;;15.43;13.05;;;21.50;99.90;;;;;;5031096;28;20041;-75
2022/09/07 08:26:30;;;;;;;13.60;11.45;;;20.10;99.90;;;;;;5030194;28;20042;-75
2022/09/07 08:28:57;;;;;;;17.48;12.05;;;21.30;99.90;;;;;;5030585;28;20047;-73
2022/09/07 08:31:23;;;;;;;13.57;11.25;;;21.40;99.90;;;;;;5033155;28;20454;-73
2022/09/07 08:33:48;;;;;;;12.93;11.50;;;19.90;99.90;;;;;;5034979;28;20045;-73
2022/09/07 08:36:19;;;;;;;14.55;11.68;;;21.10;99.90;;;;;;5033846;28;20037;-73
2022/09/07 08:38:45;;;;;;;15.05;13.43;;;19.90;99.90;;;;;;5033896;28;20518;-73
2022/09/07 08:41:42;;;;;;;16.10;11.98;;;19.60;99.90;;;;;;5034001;28;20120;-75
2022/09/07 08:44:31;;;;;;;15.23;11.73;;;19.70;99.90;;;;;;5035088;28;20499;-75
2022/09/07 08:47:15;;;;;;;17.13;12.18;;;19.60;99.90;;;;;;5033778;28;20053;-75
2022/09/07 08:50:12;;;;;;;12.05;10.73;;;20.50;99.90;;;;;;5033845;28;20037;-75
2022/09/07 08:52:55;;;;;;;12.30;10.95;;;20.00;99.90;;;;;;5033670;28;20041;-75
2022/09/07 08:55:31;;;;;;;12.85;10.43;;;20.10;99.90;;;;;;5033460;28;20561;-73
2022/09/07 08:58:12;;;;;;;11.10;9.90;;;20.30;99.90;;;;;;5033829;28;20045;-73
2022/09/07 09:00:38;;;;;;;14.52;10.35;;;20.20;99.90;;;;;;5033665;28;20049;-73
2022/09/07 09:03:12;;;;;;;10.77;9.30;;;20.50;99.90;;;;;;5033529;28;20041;-73
2022/09/07 09:05:48;;;;;;;12.02;9.15;;;21.70;99.90;;;;;;5033414;28;20674;-75
2022/09/07 09:08:47;;;;;;;12.90;9.75;;;20.70;99.90;;;;;;5033535;28;20071;-74
2022/09/07 09:11:20;;;;;;;11.35;9.18;;;20.70;99.90;;;;;;5017061;28;20091;-74
2022/09/07 09:14:16;;;;;;;10.38;8.82;;;21.00;99.90;;;;;;5034952;28;20041;-73
2022/09/07 09:16:48;;;;;;;10.73;8.05;;;20.60;99.90;;;;;;5033957;28;20091;-74
2022/09/07 09:19:42;;;;;;;10.40;8.47;;;20.80;99.90;;;;;;5035947;28;20072;-74
2022/09/07 09:25:19;;;;;;;8.80;7.90;;;20.70;99.90;;;;;;5051658;28;20064;-74
2022/09/07 09:27:45;;;;;;;8.30;7.45;;;20.80;99.90;;;;;;5054191;28;20037;-72
2022/09/07 09:30:14;;;;;;;8.27;6.68;;;20.80;99.90;;;;;;5054010;28;20079;-71
2022/09/07 09:32:42;;;;;;;10.38;6.53;;;21.10;99.90;;;;;;5052640;28;20059;-72
2022/09/07 09:35:13;;;;;;;6.47;5.75;;;21.20;99.90;;;;;;5035111;28;20045;-71
2022/09/07 09:37:40;;;;;;;5.32;4.63;;;21.20;99.90;;;;;;5050295;28;20033;-71
2022/09/07 09:40:17;;;;;;;5.75;4.22;;;21.20;99.90;;;;;;5073738;28;20036;-71
2022/09/07 09:42:43;;;;;;;4.45;3.28;;;21.20;99.90;;;;;;5067959;28;20036;-71
2022/09/07 09:45:15;;;;;;;3.67;3.03;;;21.80;99.90;;;;;;5051318;28;20149;-71
2022/09/07 09:47:48;;;;;;;5.53;3.58;;;21.60;99.90;;;;;;5052722;28;20433;-71
2022/09/07 09:50:35;;;;;;;;;;;21.40;99.90;;;;;;5054114;28;20041;-72
2022/09/07 09:53:01;;;;;;;5.00;3.20;;;21.30;99.90;;;;;;5052459;28;19917;-72
2022/09/07 09:55:30;;;;;;;5.97;3.28;;;21.60;99.90;;;;;;5051497;28;20052;-72
2022/09/07 09:58:25;;;;;;;4.55;3.05;;;20.00;99.90;;;;;;5052008;28;20564;-72
2022/09/07 10:01:03;;;;;;;4.32;3.15;;;22.10;99.90;;;;;;5052188;28;20118;-71
2022/09/07 10:03:33;;;;;;;3.58;2.55;;;21.60;99.90;;;;;;5051976;28;20051;-72
2022/09/07 10:06:07;;;;;;;4.70;2.65;;;21.90;99.90;;;;;;5050691;28;20490;-71
2022/09/07 10:08:35;;;;;;;3.47;2.47;;;22.00;99.90;;;;;;5051800;28;20047;-71
2022/09/07 10:11:07;;;;;;;4.30;3.35;;;21.90;99.90;;;;;;5053224;28;20048;-72
2022/09/07 10:13:42;;;;;;;3.92;2.63;;;22.20;99.90;;;;;;5052909;28;20061;-72
2022/09/07 10:16:09;;;;;;;2.90;2.45;;;22.30;99.90;;;;;;5051391;28;20055;-72
2022/09/07 10:18:37;;;;;;;2.30;2.05;;;23.30;99.90;;;;;;5052911;28;20037;-71
2022/09/07 10:21:22;;;;;;;4.70;2.75;;;22.70;99.90;;;;;;5051535;28;20032;-72
2022/09/07 10:23:53;;;;;;;4.45;2.33;;;22.60;99.90;;;;;;5051561;28;20049;-72
2022/09/07 10:26:30;;;;;;;2.83;2.50;;;22.40;99.90;;;;;;5035114;28;20072;-72
2022/09/07 10:29:35;;;;;;;4.40;2.42;;;22.80;99.90;;;;;;5051369;28;20047;-72
2022/09/07 10:32:12;;;;;;;4.25;2.33;;;22.60;99.90;;;;;;4960699;28;20409;-71
2022/09/07 10:34:46;;;;;;;3.42;2.10;;;22.60;99.90;;;;;;4959990;29;20043;-72
2022/09/07 10:37:43;;;;;;;2.78;2.05;;;22.80;99.90;;;;;;4977075;28;20399;-71
2022/09/07 10:40:24;;;;;;;4.07;2.30;;;22.90;99.90;;;;;;5034767;28;20044;-71
2022/09/07 10:43:15;;;;;;;2.83;1.80;;;22.50;99.90;;;;;;5047866;28;20120;-71
2022/09/07 10:45:59;;;;;;;4.90;2.50;;;22.40;99.90;;;;;;5055244;28;20037;-71
2022/09/07 10:48:36;;;;;;;4.57;1.80;;;22.20;99.90;;;;;;5055539;28;20482;-71
2022/09/07 10:51:12;;;;;;;3.05;1.73;;;23.10;99.90;;;;;;5064710;28;20045;-71
2022/09/07 10:54:05;;;;;;;4.18;2.25;;;23.20;99.90;;;;;;5049254;28;20055;-72
2022/09/07 10:56:57;;;;;;;1.80;1.50;;;22.90;99.90;;;;;;5052146;28;20048;-73
2022/09/07 10:59:40;;;;;;;3.85;1.88;;;24.00;99.90;;;;;;5051703;28;20401;-72
2022/09/07 11:02:16;;;;;;;1.95;1.55;;;22.90;99.90;;;;;;5032288;28;20036;-72
2022/09/07 11:05:01;;;;;;;3.90;1.63;;;23.20;99.90;;;;;;5049745;28;20158;-72
2022/09/07 11:07:39;;;;;;;3.80;2.10;;;23.20;99.90;;;;;;5052277;28;20049;-72
2022/09/07 11:10:26;;;;;;;3.40;1.80;;;23.00;99.90;;;;;;5050961;28;20044;-72
2022/09/07 11:12:56;;;;;;;3.65;2.17;;;22.60;99.90;;;;;;5051553;28;20182;-72
2022/09/07 11:15:28;;;;;;;3.17;2.35;;;22.40;99.90;;;;;;5051703;28;20044;-72
2022/09/07 11:18:04;;;;;;;3.90;2.45;;;22.80;99.90;;;;;;5050916;28;20402;-71
2022/09/07 11:20:40;;;;;;;2.20;1.75;;;22.90;99.90;;;;;;5051859;28;20055;-72
2022/09/07 11:23:14;;;;;;;2.13;1.83;;;23.40;99.90;;;;;;5050382;28;20032;-72
2022/09/07 11:25:42;;;;;;;4.78;2.20;;;23.10;99.90;;;;;;5050171;28;20048;-72
2022/09/07 11:28:29;;;;;;;2.80;1.90;;;24.00;99.90;;;;;;5033779;28;20103;-72
2022/09/07 11:31:04;;;;;;;2.88;2.58;;;23.40;99.90;;;;;;5051665;28;20518;-72
2022/09/07 11:33:46;;;;;;;3.28;1.65;;;23.80;99.90;;;;;;5033157;28;20079;-72
2022/09/07 11:36:15;;;;;;;2.38;1.50;;;25.00;99.90;;;;;;5036883;28;20045;-71
2022/09/07 11:38:53;;;;;;;2.30;1.83;;;24.60;99.90;;;;;;5050159;28;20032;-72
2022/09/07 11:41:39;;;;;;;4.80;1.67;;;24.60;99.90;;;;;;5049857;28;20499;-72
2022/09/07 11:44:26;;;;;;;2.58;1.38;;;24.50;99.90;;;;;;5049913;28;20546;-72
2022/09/07 11:46:55;;;;;;;1.35;1.23;;;24.30;99.90;;;;;;5051520;28;20084;-72
2022/09/07 11:49:25;;;;;;;1.83;1.40;;;24.60;99.90;;;;;;5050156;28;20044;-72
2022/09/07 11:51:56;;;;;;;2.45;1.40;;;24.30;99.90;;;;;;5049960;28;20085;-72
2022/09/07 11:54:47;;;;;;;1.38;1.27;;;24.60;99.90;;;;;;5033264;28;20044;-71
2022/09/07 11:57:31;;;;;;;5.00;1.90;;;23.90;99.90;;;;;;5033405;28;20127;-72
2022/09/07 12:00:20;;;;;;;1.35;1.17;;;23.90;99.90;;;;;;5049886;28;20091;-72
2022/09/07 12:03:22;;;;;;;2.15;1.23;;;23.90;99.90;;;;;;5051406;28;20037;-72
2022/09/07 12:05:54;;;;;;;1.90;1.50;;;23.90;99.90;;;;;;5033013;28;20041;-72
2022/09/07 12:08:52;;;;;;;2.08;1.15;;;23.90;99.90;;;;;;5040828;28;20040;-72
2022/09/07 12:11:31;;;;;;;1.88;1.10;;;24.40;99.90;;;;;;5047938;28;20040;-72
2022/09/07 12:14:20;;;;;;;2.05;1.50;;;24.40;99.90;;;;;;5047148;28;20120;-72
2022/09/07 12:17:23;;;;;;;3.30;1.77;;;24.80;99.90;;;;;;5049784;28;20048;-73
2022/09/07 12:20:16;;;;;;;2.42;1.33;;;24.40;99.90;;;;;;5049866;28;20123;-72
2022/09/07 12:23:03;;;;;;;4.88;1.65;;;24.20;99.90;;;;;;5047688;28;20052;-72
2022/09/07 12:25:30;;;;;;;2.97;1.63;;;24.20;99.90;;;;;;5049424;28;20056;-72
2022/09/07 12:27:56;;;;;;;5.00;2.03;;;24.90;99.90;;;;;;5049807;28;20043;-72
2022/09/07 12:30:22;;;;;;;2.33;1.88;;;24.90;99.90;;;;;;5050008;28;20514;-72
2022/09/07 12:32:52;;;;;;;2.75;1.55;;;25.70;99.90;;;;;;5049526;28;20560;-72
2022/09/07 12:35:27;;;;;;;1.90;1.60;;;24.10;99.90;;;;;;5050490;28;20049;-72
2022/09/07 12:37:57;;;;;;;3.38;1.42;;;25.10;99.90;;;;;;5049327;28;20045;-72
2022/09/07 12:40:34;;;;;;;2.45;1.60;;;24.00;99.90;;;;;;5066576;28;20037;-72
2022/09/07 12:43:12;;;;;;;2.63;1.40;;;25.40;99.90;;;;;;5049049;28;20037;-72
2022/09/07 12:45:38;;;;;;;1.65;1.20;;;24.10;99.90;;;;;;5051972;28;20410;-72
2022/09/07 12:48:15;;;;;;;3.15;2.03;;;24.10;99.90;;;;;;5065982;28;20045;-72
2022/09/07 12:51:08;;;;;;;2.20;1.67;;;24.60;99.90;;;;;;5033044;28;20140;-72
2022/09/07 12:53:49;;;;;;;1.50;1.40;;;24.30;99.90;;;;;;5050986;28;20056;-71
2022/09/07 12:56:22;;;;;;;2.83;1.88;;;24.40;99.90;;;;;;5049053;28;20041;-72
2022/09/07 12:59:07;;;;;;;2.10;1.60;;;25.20;99.90;;;;;;5050964;28;20037;-72
2022/09/07 13:02:04;;;;;;;5.22;1.98;;;24.40;99.90;;;;;;5050982;28;20029;-72
2022/09/07 13:05:01;;;;;;;3.70;1.70;;;24.10;99.90;;;;;;5050594;28;20068;-72
2022/09/07 13:08:01;;;;;;;3.28;1.75;;;24.20;99.90;;;;;;5049710;28;20515;-72
2022/09/07 13:10:32;;;;;;;3.47;2.15;;;24.20;99.90;;;;;;5049330;28;20056;-72
2022/09/07 13:13:15;;;;;;;3.53;2.03;;;24.50;99.90;;;;;;5049556;28;20041;-71